Terminal Aerodrome Forecast
Issued by NWS Shreveport, LA

Home | Current Version | Previous Version | Text Only | Print | Product List | Glossary On
Versions: 1 2 3 4 5 6 7 8 9 10 11 12
000
FTUS44 KSHV 310521
TAFGGG
TAF
KGGG 310521Z 3106/0106 17005KT P6SM BKN150 BKN250
     FM311200 20004KT P6SM FEW025 BKN150 BKN250
     FM311600 20007KT P6SM SCT050 BKN130 BKN250
     FM312000 17008KT P6SM BKN060 BKN250
     FM010100 16004KT P6SM SCT250=

USA.gov is the U.S. government's official web portal to all federal, state and local government web resources and services.